createdAt,value
2022-07-29T00:01:53.441Z,51.55
2022-07-29T00:04:25.366Z,51.36
2022-07-29T00:06:56.286Z,49.15
2022-07-29T00:09:26.058Z,50.61
2022-07-29T00:11:55.943Z,51.32
2022-07-29T00:14:26.689Z,51.36
2022-07-29T00:16:59.058Z,51.43
2022-07-29T00:19:28.801Z,51.46
2022-07-29T00:21:59.656Z,51.78
2022-07-29T00:24:29.576Z,51.18
2022-07-29T00:26:59.261Z,51.48
2022-07-29T00:29:34.150Z,51.63
2022-07-29T00:32:07.127Z,51.55
2022-07-29T00:34:49.404Z,51.74
2022-07-29T00:37:19.217Z,51.62
2022-07-29T00:39:49.016Z,51.31
2022-07-29T00:42:18.791Z,51.26
2022-07-29T00:44:49.798Z,50.74
2022-07-29T00:47:22.186Z,51.03
2022-07-29T00:49:51.967Z,51.55
2022-07-29T00:52:21.686Z,51.17
2022-07-29T00:54:51.334Z,51.77
2022-07-29T00:57:21.090Z,51.44
2022-07-29T00:59:50.731Z,51.13
2022-07-29T01:02:23.043Z,50.85
2022-07-29T01:04:53.359Z,51.05
2022-07-29T01:07:23.276Z,51.22
2022-07-29T01:09:54.581Z,51.24
2022-07-29T01:12:28.052Z,51.10
2022-07-29T01:14:59.246Z,51.13
2022-07-29T01:17:36.187Z,51.63
2022-07-29T01:20:14.118Z,51.43
2022-07-29T01:23:04.413Z,51.40
2022-07-29T01:25:55.760Z,51.43
2022-07-29T01:28:50.744Z,51.20
2022-07-29T01:31:28.643Z,51.44
2022-07-29T01:34:09.127Z,51.55
2022-07-29T01:36:43.682Z,52.04
2022-07-29T01:39:15.945Z,52.10
2022-07-29T01:41:54.496Z,51.64
2022-07-29T01:44:34.434Z,52.15
2022-07-29T01:47:09.692Z,52.16
2022-07-29T01:49:42.854Z,52.18
2022-07-29T01:52:19.529Z,52.40
2022-07-29T01:54:55.198Z,52.18
2022-07-29T01:57:31.664Z,52.17
2022-07-29T02:00:05.630Z,51.92
2022-07-29T02:02:42.903Z,51.94
2022-07-29T02:05:16.386Z,52.05
2022-07-29T02:07:50.117Z,52.23
2022-07-29T02:10:26.111Z,51.83
2022-07-29T02:12:58.663Z,52.22
2022-07-29T02:15:34.368Z,52.15
2022-07-29T02:18:08.999Z,52.35
2022-07-29T02:20:40.165Z,52.01
2022-07-29T02:23:11.090Z,52.23
2022-07-29T02:25:41.436Z,52.33
2022-07-29T02:28:12.720Z,52.12
2022-07-29T02:30:47.846Z,51.88
2022-07-29T02:33:20.972Z,51.94
2022-07-29T02:35:52.278Z,51.80
2022-07-29T02:38:36.321Z,52.18
2022-07-29T02:41:12.582Z,52.12
2022-07-29T02:43:44.704Z,52.21
2022-07-29T02:46:28.413Z,51.93
2022-07-29T02:49:03.394Z,52.42
2022-07-29T02:51:44.179Z,52.29
2022-07-29T02:54:18.527Z,52.66
2022-07-29T02:56:50.260Z,52.55
2022-07-29T02:59:25.805Z,52.86
2022-07-29T03:01:59.224Z,52.84
2022-07-29T03:04:31.757Z,52.95
2022-07-29T03:07:03.833Z,52.76
2022-07-29T03:09:34.038Z,52.86
2022-07-29T03:12:05.139Z,53.09
2022-07-29T03:14:35.700Z,52.87
2022-07-29T03:17:08.914Z,52.92
2022-07-29T03:19:39.153Z,52.77
2022-07-29T03:22:09.121Z,53.34
2022-07-29T03:24:40.530Z,53.11
2022-07-29T03:27:10.306Z,53.34
2022-07-29T03:29:40.024Z,53.78
2022-07-29T03:32:15.961Z,53.86
2022-07-29T03:34:53.614Z,54.24
2022-07-29T03:37:23.305Z,54.48
2022-07-29T03:39:54.777Z,54.56
2022-07-29T03:42:32.413Z,54.50
2022-07-29T03:45:08.853Z,54.58
2022-07-29T03:47:55.867Z,54.54
2022-07-29T03:50:28.390Z,54.89
2022-07-29T03:52:58.250Z,55.19
2022-07-29T03:55:29.216Z,54.67
2022-07-29T03:58:01.122Z,54.93
2022-07-29T04:00:31.590Z,55.02
2022-07-29T04:03:04.402Z,54.86
2022-07-29T04:05:34.134Z,54.57
2022-07-29T04:08:03.864Z,54.98
2022-07-29T04:10:34.162Z,55.41
2022-07-29T04:13:05.562Z,54.86
2022-07-29T04:15:35.339Z,54.75
2022-07-29T04:18:07.676Z,54.82
2022-07-29T04:20:37.346Z,55.26
2022-07-29T04:23:07.088Z,55.20
2022-07-29T04:25:36.772Z,55.27
2022-07-29T04:28:06.718Z,55.19
2022-07-29T04:30:37.629Z,55.63
2022-07-29T04:33:10.835Z,55.40
2022-07-29T04:35:50.547Z,55.56
2022-07-29T04:38:23.190Z,55.50
2022-07-29T04:40:52.836Z,55.38
2022-07-29T04:43:24.243Z,55.35
2022-07-29T04:45:54.746Z,55.54
2022-07-29T04:48:28.830Z,55.28
2022-07-29T04:50:58.830Z,55.66
2022-07-29T04:53:29.011Z,55.22
2022-07-29T04:55:59.244Z,55.48
2022-07-29T04:58:28.997Z,55.84
2022-07-29T05:00:58.859Z,55.77
2022-07-29T05:03:31.181Z,55.13
2022-07-29T05:06:00.961Z,55.43
2022-07-29T05:08:30.655Z,55.23
2022-07-29T05:11:11.643Z,55.28
2022-07-29T05:13:45.433Z,55.36
2022-07-29T05:16:16.730Z,55.65
2022-07-29T05:18:50.087Z,55.42
2022-07-29T05:21:19.883Z,55.64
2022-07-29T05:23:49.697Z,55.85
2022-07-29T05:26:19.447Z,55.83
2022-07-29T05:28:50.268Z,55.83
2022-07-29T05:31:20.042Z,55.97
2022-07-29T05:33:52.436Z,56.18
2022-07-29T05:36:22.231Z,56.36
2022-07-29T05:38:53.153Z,55.98
2022-07-29T05:41:23.310Z,56.04
2022-07-29T05:43:53.035Z,55.82
2022-07-29T05:46:22.883Z,55.58
2022-07-29T05:48:55.619Z,55.35
2022-07-29T05:51:26.413Z,54.77
2022-07-29T05:53:57.185Z,54.82
2022-07-29T05:56:28.097Z,54.17
2022-07-29T05:58:59.549Z,54.01
2022-07-29T06:01:30.442Z,54.29
2022-07-29T06:04:03.044Z,54.07
2022-07-29T06:06:32.907Z,54.79
2022-07-29T06:09:11.550Z,54.53
2022-07-29T06:11:42.641Z,54.21
2022-07-29T06:14:13.685Z,54.59
2022-07-29T06:16:43.813Z,54.21
2022-07-29T06:19:16.224Z,54.03
2022-07-29T06:21:46.168Z,54.02
2022-07-29T06:24:18.587Z,54.08
2022-07-29T06:26:49.757Z,54.28
2022-07-29T06:29:20.530Z,54.11
2022-07-29T06:31:50.279Z,53.84
2022-07-29T06:34:22.933Z,53.85
2022-07-29T06:36:53.883Z,53.91
2022-07-29T06:39:24.319Z,53.83
2022-07-29T06:41:55.071Z,54.00
2022-07-29T06:44:29.150Z,53.98
2022-07-29T06:46:59.949Z,53.24
2022-07-29T06:49:32.430Z,53.28
2022-07-29T06:52:02.207Z,54.11
2022-07-29T06:54:32.927Z,53.64
2022-07-29T06:57:03.703Z,53.23
2022-07-29T06:59:35.981Z,53.24
2022-07-29T07:02:08.058Z,53.17
2022-07-29T07:04:40.395Z,53.42
2022-07-29T07:07:11.228Z,53.30
2022-07-29T07:09:41.985Z,52.83
2022-07-29T07:12:12.230Z,52.15
2022-07-29T07:14:44.249Z,52.14
2022-07-29T07:17:14.041Z,53.15
2022-07-29T07:19:48.841Z,52.52
2022-07-29T07:22:18.595Z,52.02
2022-07-29T07:24:48.382Z,51.63
2022-07-29T07:27:18.383Z,52.34
2022-07-29T07:29:49.053Z,51.99
2022-07-29T07:32:20.636Z,51.54
2022-07-29T07:34:53.101Z,52.34
2022-07-29T07:37:23.124Z,52.02
2022-07-29T07:39:52.920Z,51.70
2022-07-29T07:42:24.029Z,51.63
2022-07-29T07:45:12.539Z,51.54
2022-07-29T07:47:43.970Z,51.60
2022-07-29T07:50:19.051Z,51.11
2022-07-29T07:52:52.014Z,51.41
2022-07-29T07:55:24.210Z,51.41
2022-07-29T07:57:53.957Z,50.92
2022-07-29T08:00:24.379Z,51.11
2022-07-29T08:02:55.224Z,51.35
2022-07-29T08:05:27.845Z,50.67
2022-07-29T08:07:57.577Z,50.44
2022-07-29T08:10:41.276Z,50.39
2022-07-29T08:13:13.296Z,49.88
2022-07-29T08:15:46.003Z,49.26
2022-07-29T08:18:17.301Z,48.68
2022-07-29T08:20:49.692Z,48.52
2022-07-29T08:23:20.067Z,48.65
2022-07-29T08:25:50.502Z,48.24
2022-07-29T08:28:20.541Z,48.40
2022-07-29T08:30:50.226Z,48.62
2022-07-29T08:33:21.144Z,48.12
2022-07-29T08:35:54.486Z,48.18
2022-07-29T08:38:24.407Z,47.50
2022-07-29T08:40:55.324Z,46.90
2022-07-29T08:43:25.133Z,46.86
2022-07-29T08:45:56.049Z,46.33
2022-07-29T08:48:27.145Z,45.71
2022-07-29T08:51:01.719Z,45.08
2022-07-29T08:53:33.189Z,44.10
2022-07-29T08:56:03.623Z,44.35
2022-07-29T08:58:38.396Z,44.65
2022-07-29T09:01:12.211Z,45.31
2022-07-29T09:03:44.234Z,44.62
2022-07-29T09:06:21.812Z,43.86
2022-07-29T09:08:52.605Z,44.84
2022-07-29T09:11:23.377Z,45.01
2022-07-29T09:13:53.291Z,44.98
2022-07-29T09:16:50.775Z,45.06
2022-07-29T09:19:23.878Z,45.02
2022-07-29T09:22:03.543Z,45.38
2022-07-29T09:24:43.339Z,44.90
2022-07-29T09:27:22.770Z,44.85
2022-07-29T09:30:00.749Z,43.47
2022-07-29T09:32:30.736Z,42.97
2022-07-29T09:35:22.314Z,42.62
2022-07-29T09:37:54.767Z,42.77
2022-07-29T09:40:26.933Z,42.80
2022-07-29T09:42:58.397Z,42.84
2022-07-29T09:45:32.945Z,43.04
2022-07-29T09:48:04.610Z,42.82
2022-07-29T09:50:41.461Z,43.36
2022-07-29T09:53:15.312Z,43.01
2022-07-29T09:55:51.870Z,42.63
2022-07-29T09:58:23.841Z,42.24
2022-07-29T10:00:56.058Z,41.71
2022-07-29T10:03:26.609Z,42.06
2022-07-29T10:06:11.530Z,41.73
2022-07-29T10:08:45.421Z,41.43
2022-07-29T10:11:16.947Z,41.21
2022-07-29T10:13:50.023Z,40.82
2022-07-29T10:16:20.753Z,40.81
2022-07-29T10:18:52.767Z,39.54
2022-07-29T10:21:36.453Z,39.80
2022-07-29T10:24:14.871Z,39.92
2022-07-29T10:26:48.156Z,40.37
2022-07-29T10:29:19.100Z,39.66
2022-07-29T10:32:01.065Z,39.60
2022-07-29T10:34:48.610Z,39.97
2022-07-29T10:37:26.000Z,39.35
2022-07-29T10:40:26.933Z,39.02
2022-07-29T10:43:04.554Z,38.71
2022-07-29T10:45:36.059Z,39.08
2022-07-29T10:48:09.706Z,39.18
2022-07-29T10:50:58.049Z,39.05
2022-07-29T10:53:49.234Z,39.64
2022-07-29T10:56:34.465Z,39.92
2022-07-29T10:59:32.440Z,39.99
2022-07-29T11:02:36.450Z,40.09
2022-07-29T11:05:07.243Z,40.28
2022-07-29T11:07:45.688Z,40.00
2022-07-29T11:10:31.232Z,39.57
2022-07-29T11:13:05.123Z,39.57
2022-07-29T11:15:56.534Z,40.10
2022-07-29T11:18:26.635Z,39.92
2022-07-29T11:20:57.551Z,40.61
2022-07-29T11:23:34.709Z,40.44
2022-07-29T11:26:23.343Z,40.55
2022-07-29T11:29:02.142Z,40.26
2022-07-29T11:31:42.566Z,40.05
2022-07-29T11:34:28.051Z,39.94
2022-07-29T11:37:29.482Z,39.74
2022-07-29T11:40:20.283Z,39.68
2022-07-29T11:42:55.022Z,39.81
2022-07-29T11:45:42.197Z,39.88
2022-07-29T11:51:14.273Z,40.18
2022-07-29T11:53:52.628Z,40.00
2022-07-29T11:56:25.795Z,40.43
2022-07-29T11:59:08.336Z,40.34
2022-07-29T12:02:12.183Z,39.91
2022-07-29T12:04:55.364Z,40.21
2022-07-29T12:07:33.797Z,40.19
2022-07-29T12:10:08.221Z,40.44
2022-07-29T12:12:42.338Z,39.82
2022-07-29T12:15:21.622Z,40.12
2022-07-29T12:17:56.989Z,39.69
2022-07-29T12:20:29.583Z,40.22
2022-07-29T12:23:00.610Z,40.30
2022-07-29T12:25:38.181Z,40.09
2022-07-29T12:28:10.748Z,39.92
2022-07-29T12:30:47.228Z,39.98
2022-07-29T12:33:24.640Z,40.35
2022-07-29T12:36:06.977Z,40.51
2022-07-29T12:38:44.146Z,40.13
2022-07-29T12:41:15.057Z,39.95
2022-07-29T12:43:57.248Z,40.51
2022-07-29T12:46:33.356Z,40.19
2022-07-29T12:49:06.772Z,40.38
2022-07-29T12:51:38.476Z,40.49
2022-07-29T12:54:12.068Z,40.74
2022-07-29T12:56:44.464Z,40.35
2022-07-29T12:59:20.338Z,40.02
2022-07-29T13:01:53.661Z,39.88
2022-07-29T13:04:34.356Z,40.22
2022-07-29T13:07:10.501Z,39.87
2022-07-29T13:09:42.792Z,40.41
2022-07-29T13:12:14.434Z,39.54
2022-07-29T13:14:51.350Z,39.86
2022-07-29T13:17:24.180Z,39.18
2022-07-29T13:20:13.527Z,39.37
2022-07-29T13:22:44.437Z,39.61
2022-07-29T13:25:17.209Z,39.48
2022-07-29T13:27:47.377Z,40.05
2022-07-29T13:30:18.308Z,39.59
2022-07-29T13:32:50.243Z,39.84
2022-07-29T13:35:23.389Z,39.48
2022-07-29T13:37:53.769Z,39.48
2022-07-29T13:40:26.478Z,39.22
2022-07-29T13:42:56.489Z,39.07
2022-07-29T13:45:29.298Z,39.06
2022-07-29T13:47:59.258Z,39.68
2022-07-29T13:50:31.658Z,39.92
2022-07-29T13:53:01.450Z,38.91
2022-07-29T13:55:34.915Z,39.25
2022-07-29T13:58:04.714Z,39.68
2022-07-29T14:00:34.831Z,39.50
2022-07-29T14:03:04.777Z,39.08
2022-07-29T14:05:37.430Z,38.82
2022-07-29T14:08:08.282Z,39.25
2022-07-29T14:10:39.268Z,39.38
2022-07-29T14:13:24.295Z,39.35
2022-07-29T14:15:55.941Z,39.07
2022-07-29T14:18:28.290Z,39.23
2022-07-29T14:21:01.289Z,39.74
2022-07-29T14:23:32.617Z,39.37
2022-07-29T14:26:02.398Z,39.51
2022-07-29T14:28:32.984Z,39.58
2022-07-29T14:31:03.126Z,39.49
2022-07-29T14:33:32.940Z,39.44
2022-07-29T14:36:05.507Z,38.73
2022-07-29T14:38:35.230Z,39.28
2022-07-29T14:41:05.925Z,39.02
2022-07-29T14:43:35.742Z,39.15
2022-07-29T14:46:08.469Z,38.87
2022-07-29T14:48:38.891Z,39.10
2022-07-29T14:51:11.470Z,39.10
2022-07-29T14:53:41.321Z,38.95
2022-07-29T14:56:35.574Z,39.23
2022-07-29T14:59:01.813Z,38.92
2022-07-29T15:01:32.766Z,39.00
2022-07-29T15:04:02.604Z,38.29
2022-07-29T15:06:35.099Z,38.39
2022-07-29T15:09:05.874Z,38.25
2022-07-29T15:11:38.781Z,37.92
2022-07-29T15:14:09.349Z,38.35
2022-07-29T15:16:43.745Z,38.26
2022-07-29T15:19:14.969Z,37.88
2022-07-29T15:21:49.192Z,37.87
2022-07-29T15:24:20.922Z,38.26
2022-07-29T15:26:51.675Z,37.89
2022-07-29T15:29:21.524Z,38.14
2022-07-29T15:31:51.983Z,38.59
2022-07-29T15:34:26.752Z,38.38
2022-07-29T15:36:58.980Z,38.48
2022-07-29T15:39:28.733Z,38.17
2022-07-29T15:42:00.572Z,38.15
2022-07-29T15:44:31.705Z,38.13
2022-07-29T15:47:07.485Z,38.47
2022-07-29T15:49:48.273Z,38.09
2022-07-29T15:52:24.950Z,38.15
2022-07-29T15:54:57.727Z,37.89
2022-07-29T15:57:28.818Z,38.51
2022-07-29T15:59:58.561Z,37.89
2022-07-29T16:02:28.262Z,38.72
2022-07-29T16:04:58.046Z,38.83
2022-07-29T16:07:31.288Z,38.88
2022-07-29T16:10:02.703Z,39.59
2022-07-29T16:12:34.058Z,39.42
2022-07-29T16:15:09.431Z,39.63
2022-07-29T16:17:40.476Z,39.88
2022-07-29T16:20:11.521Z,39.90
2022-07-29T16:22:46.358Z,40.70
2022-07-29T16:25:16.218Z,40.44
2022-07-29T16:27:46.000Z,40.74
2022-07-29T16:30:16.611Z,40.41
2022-07-29T16:32:46.416Z,40.51
2022-07-29T16:35:16.200Z,41.06
2022-07-29T16:37:48.507Z,40.56
2022-07-29T16:40:18.362Z,40.65
2022-07-29T16:42:48.134Z,40.61
2022-07-29T16:45:18.820Z,40.84
2022-07-29T16:47:51.237Z,40.36
2022-07-29T16:50:21.019Z,40.39
2022-07-29T16:52:53.455Z,40.57
2022-07-29T16:55:23.485Z,40.17
2022-07-29T16:57:53.914Z,40.48
2022-07-29T17:00:24.778Z,40.67
2022-07-29T17:02:54.457Z,40.36
2022-07-29T17:05:24.327Z,40.83
2022-07-29T17:07:58.537Z,41.11
2022-07-29T17:10:29.991Z,40.95
2022-07-29T17:12:59.799Z,41.26
2022-07-29T17:15:29.594Z,41.70
2022-07-29T17:18:00.770Z,42.29
2022-07-29T17:20:33.141Z,42.21
2022-07-29T17:23:05.561Z,42.30
2022-07-29T17:25:35.402Z,42.54
2022-07-29T17:28:05.189Z,42.54
2022-07-29T17:30:35.020Z,42.13
2022-07-29T17:33:04.831Z,42.45
2022-07-29T17:35:47.152Z,43.72
2022-07-29T17:38:19.520Z,43.85
2022-07-29T17:40:49.216Z,44.53
2022-07-29T17:43:19.057Z,44.38
2022-07-29T17:45:50.789Z,45.05
2022-07-29T17:48:21.056Z,45.82
2022-07-29T17:50:51.953Z,46.50
2022-07-29T17:53:24.240Z,47.92
2022-07-29T17:55:56.277Z,49.89
2022-07-29T17:58:26.079Z,51.31
2022-07-29T18:00:56.021Z,53.67
2022-07-29T18:03:27.278Z,54.73
2022-07-29T18:05:57.127Z,56.47
2022-07-29T18:08:33.083Z,57.65
2022-07-29T18:11:02.843Z,58.44
2022-07-29T18:13:32.560Z,59.04
2022-07-29T18:16:03.701Z,59.98
2022-07-29T18:18:35.121Z,61.12
2022-07-29T18:21:05.580Z,61.97
2022-07-29T18:23:38.069Z,63.15
2022-07-29T18:26:08.040Z,63.49
2022-07-29T18:28:38.847Z,64.10
2022-07-29T18:31:09.953Z,63.58
2022-07-29T18:33:40.819Z,63.59
2022-07-29T18:36:11.816Z,63.30
2022-07-29T18:38:45.543Z,63.08
2022-07-29T18:41:16.283Z,64.00
2022-07-29T18:43:48.270Z,63.18
2022-07-29T18:46:18.205Z,63.13
2022-07-29T18:48:51.045Z,62.85
2022-07-29T18:51:22.229Z,62.27
2022-07-29T18:53:55.940Z,62.44
2022-07-29T19:00:28.431Z,61.78
2022-07-29T19:02:59.962Z,61.37
2022-07-29T19:05:32.704Z,62.48
2022-07-29T19:08:05.727Z,64.13
2022-07-29T19:10:40.400Z,64.74
2022-07-29T19:13:13.642Z,66.92
2022-07-29T19:15:59.070Z,67.90
2022-07-29T19:18:29.758Z,68.22
2022-07-29T19:21:01.041Z,68.95
2022-07-29T19:24:03.819Z,70.04
2022-07-29T19:26:36.717Z,72.06
2022-07-29T19:29:07.076Z,72.24
2022-07-29T19:31:37.938Z,74.75
2022-07-29T19:34:08.797Z,74.83
2022-07-29T19:36:39.719Z,74.68
2022-07-29T19:39:10.493Z,75.82
2022-07-29T19:41:44.124Z,76.87
2022-07-29T19:44:14.189Z,78.62
2022-07-29T19:46:45.517Z,78.67
2022-07-29T19:49:15.702Z,79.07
2022-07-29T19:51:46.462Z,79.57
2022-07-29T19:54:18.314Z,80.72
2022-07-29T19:56:52.566Z,80.31
2022-07-29T19:59:24.913Z,81.77
2022-07-29T20:01:59.430Z,82.08
2022-07-29T20:04:29.351Z,79.91
2022-07-29T20:07:01.582Z,77.12
2022-07-29T20:09:32.820Z,76.86
2022-07-29T20:12:06.649Z,76.29
2022-07-29T20:14:36.385Z,77.91
2022-07-29T20:17:06.442Z,77.46
2022-07-29T20:19:36.838Z,79.22
2022-07-29T20:22:08.004Z,78.99
2022-07-29T20:24:37.824Z,80.85
2022-07-29T20:27:13.719Z,79.98
2022-07-29T20:29:43.873Z,80.50
2022-07-29T20:32:14.732Z,80.67
2022-07-29T20:34:44.434Z,81.77
2022-07-29T20:37:16.232Z,82.30
2022-07-29T20:39:47.916Z,82.37
2022-07-29T20:42:20.249Z,83.02
2022-07-29T20:44:51.232Z,82.41
2022-07-29T20:47:22.412Z,83.34
2022-07-29T20:49:53.135Z,83.94
2022-07-29T20:52:24.115Z,83.38
2022-07-29T20:54:54.890Z,83.16
2022-07-29T20:57:39.471Z,83.36
2022-07-29T21:00:12.730Z,83.79
2022-07-29T21:02:43.550Z,84.41
2022-07-29T21:05:14.352Z,84.77
2022-07-29T21:07:48.330Z,84.93
2022-07-29T21:10:23.186Z,84.77
2022-07-29T21:12:56.487Z,85.55
2022-07-29T21:15:29.049Z,85.80
2022-07-29T21:18:03.085Z,86.10
2022-07-29T21:20:33.972Z,85.40
2022-07-29T21:23:08.201Z,84.94
2022-07-29T21:25:38.935Z,85.22
2022-07-29T21:28:23.686Z,84.38
2022-07-29T21:30:54.575Z,84.31
2022-07-29T21:33:25.630Z,84.65
2022-07-29T21:36:20.339Z,84.58
2022-07-29T21:38:47.532Z,83.08
2022-07-29T21:41:18.301Z,83.24
2022-07-29T21:43:51.594Z,82.98
2022-07-29T21:46:24.650Z,83.94
2022-07-29T21:48:54.605Z,83.20
2022-07-29T21:51:25.414Z,84.25
2022-07-29T21:53:56.186Z,85.50
2022-07-29T21:56:27.721Z,85.11
2022-07-29T21:59:01.441Z,85.03
2022-07-29T22:01:39.066Z,85.71
2022-07-29T22:04:10.372Z,85.38
2022-07-29T22:06:42.225Z,84.58
2022-07-29T22:09:12.987Z,84.48
2022-07-29T22:11:43.818Z,86.45
2022-07-29T22:14:18.550Z,86.94
2022-07-29T22:16:50.559Z,87.58
2022-07-29T22:19:20.435Z,87.54
2022-07-29T22:21:52.130Z,86.19
2022-07-29T22:24:22.910Z,85.33
2022-07-29T22:26:52.566Z,85.01
2022-07-29T22:29:26.820Z,84.88
2022-07-29T22:31:56.592Z,84.67
2022-07-29T22:34:26.318Z,84.71
2022-07-29T22:37:07.048Z,84.83
2022-07-29T22:39:36.850Z,84.89
2022-07-29T22:42:06.931Z,85.39
2022-07-29T22:44:39.209Z,85.14
2022-07-29T22:47:09.221Z,85.72
2022-07-29T22:49:38.879Z,85.10
2022-07-29T22:52:09.200Z,84.36
2022-07-29T22:54:39.323Z,84.56
2022-07-29T22:57:09.096Z,85.03
2022-07-29T22:59:41.424Z,85.56
2022-07-29T23:02:11.166Z,86.66
2022-07-29T23:04:40.857Z,87.00
2022-07-29T23:07:10.536Z,87.10
2022-07-29T23:09:40.285Z,87.19
2022-07-29T23:12:11.053Z,87.16
2022-07-29T23:14:43.935Z,86.62
2022-07-29T23:17:13.735Z,86.14
2022-07-29T23:19:43.517Z,86.93
2022-07-29T23:22:14.424Z,86.91
2022-07-29T23:24:44.119Z,87.00
2022-07-29T23:27:13.778Z,86.75
2022-07-29T23:29:46.076Z,86.36
2022-07-29T23:32:15.783Z,86.40
2022-07-29T23:34:45.479Z,86.58
2022-07-29T23:37:15.138Z,86.82
2022-07-29T23:39:45.930Z,86.91
2022-07-29T23:42:15.636Z,87.03
2022-07-29T23:44:47.940Z,86.63
2022-07-29T23:47:17.691Z,86.01
2022-07-29T23:49:49.851Z,86.36
2022-07-29T23:52:19.863Z,87.23
2022-07-29T23:54:49.709Z,87.87
2022-07-29T23:57:22.839Z,86.63
2022-07-29T23:59:56.305Z,86.00
